sensor_id;sensor_type;location;lat;lon;timestamp;pressure;altitude;pressure_sealevel;temperature;humidity
19789;BME280;10054;59.332;18.244;2023-04-30T00:00:02;100082.86;;;4.66;100.00
19789;BME280;10054;59.332;18.244;2023-04-30T00:02:34;100081.63;;;4.64;100.00
19789;BME280;10054;59.332;18.244;2023-04-30T00:05:03;100081.17;;;4.65;100.00
19789;BME280;10054;59.332;18.244;2023-04-30T00:07:32;100078.24;;;4.62;100.00
19789;BME280;10054;59.332;18.244;2023-04-30T00:10:01;100082.09;;;4.63;100.00
19789;BME280;10054;59.332;18.244;2023-04-30T00:12:31;100083.33;;;4.65;100.00
19789;BME280;10054;59.332;18.244;2023-04-30T00:15:00;100086.86;;;4.64;100.00
19789;BME280;10054;59.332;18.244;2023-04-30T00:17:29;100085.23;;;4.61;100.00
19789;BME280;10054;59.332;18.244;2023-04-30T00:19:58;100093.92;;;4.62;100.00
19789;BME280;10054;59.332;18.244;2023-04-30T00:22:27;100095.69;;;4.61;100.00
19789;BME280;10054;59.332;18.244;2023-04-30T00:24:56;100097.91;;;4.60;100.00
19789;BME280;10054;59.332;18.244;2023-04-30T00:27:25;100105.60;;;4.63;100.00
19789;BME280;10054;59.332;18.244;2023-04-30T00:29:54;100106.91;;;4.63;100.00
19789;BME280;10054;59.332;18.244;2023-04-30T00:32:23;100108.28;;;4.62;100.00
19789;BME280;10054;59.332;18.244;2023-04-30T00:34:53;100106.13;;;4.61;100.00
19789;BME280;10054;59.332;18.244;2023-04-30T00:37:22;100109.91;;;4.65;100.00
19789;BME280;10054;59.332;18.244;2023-04-30T00:39:51;100113.05;;;4.62;100.00
19789;BME280;10054;59.332;18.244;2023-04-30T00:42:20;100109.73;;;4.59;100.00
19789;BME280;10054;59.332;18.244;2023-04-30T00:44:49;100109.66;;;4.60;100.00
19789;BME280;10054;59.332;18.244;2023-04-30T00:47:19;100113.66;;;4.59;100.00
19789;BME280;10054;59.332;18.244;2023-04-30T00:49:48;100126.85;;;4.56;100.00
19789;BME280;10054;59.332;18.244;2023-04-30T00:52:17;100121.09;;;4.58;100.00
19789;BME280;10054;59.332;18.244;2023-04-30T00:54:46;100117.78;;;4.54;100.00
19789;BME280;10054;59.332;18.244;2023-04-30T00:57:15;100120.92;;;4.52;100.00
19789;BME280;10054;59.332;18.244;2023-04-30T00:59:45;100125.36;;;4.50;100.00
19789;BME280;10054;59.332;18.244;2023-04-30T01:02:15;100125.30;;;4.52;100.00
19789;BME280;10054;59.332;18.244;2023-04-30T01:04:44;100131.05;;;4.50;100.00
19789;BME280;10054;59.332;18.244;2023-04-30T01:07:13;100140.26;;;4.48;100.00
19789;BME280;10054;59.332;18.244;2023-04-30T01:09:42;100140.58;;;4.51;100.00
19789;BME280;10054;59.332;18.244;2023-04-30T01:12:25;100142.80;;;4.50;100.00
19789;BME280;10054;59.332;18.244;2023-04-30T01:15:13;100146.02;;;4.46;100.00
19789;BME280;10054;59.332;18.244;2023-04-30T01:20:28;100153.00;;;4.46;100.00
19789;BME280;10054;59.332;18.244;2023-04-30T01:23:09;100145.27;;;4.44;100.00
19789;BME280;10054;59.332;18.244;2023-04-30T01:28:15;100158.00;;;4.42;100.00
19789;BME280;10054;59.332;18.244;2023-04-30T01:30:45;100166.95;;;4.36;100.00
19789;BME280;10054;59.332;18.244;2023-04-30T01:33:14;100160.49;;;4.35;100.00
19789;BME280;10054;59.332;18.244;2023-04-30T01:45:10;100158.28;;;4.25;100.00
19789;BME280;10054;59.332;18.244;2023-04-30T01:46:52;100160.64;;;4.21;100.00
19789;BME280;10054;59.332;18.244;2023-04-30T01:49:42;100166.66;;;4.13;100.00
19789;BME280;10054;59.332;18.244;2023-04-30T01:52:27;100173.11;;;4.15;100.00
19789;BME280;10054;59.332;18.244;2023-04-30T01:55:00;100175.27;;;4.15;100.00
19789;BME280;10054;59.332;18.244;2023-04-30T01:57:38;100172.33;;;4.13;100.00
19789;BME280;10054;59.332;18.244;2023-04-30T02:00:08;100172.66;;;4.15;100.00
19789;BME280;10054;59.332;18.244;2023-04-30T02:02:40;100176.83;;;4.19;100.00
19789;BME280;10054;59.332;18.244;2023-04-30T02:05:09;100176.96;;;4.16;100.00
19789;BME280;10054;59.332;18.244;2023-04-30T02:07:39;100180.09;;;4.14;100.00
19789;BME280;10054;59.332;18.244;2023-04-30T02:10:10;100192.23;;;4.15;100.00
19789;BME280;10054;59.332;18.244;2023-04-30T02:12:39;100192.75;;;4.13;100.00
19789;BME280;10054;59.332;18.244;2023-04-30T02:15:09;100185.97;;;4.09;100.00
19789;BME280;10054;59.332;18.244;2023-04-30T02:17:39;100186.03;;;4.08;100.00
19789;BME280;10054;59.332;18.244;2023-04-30T02:20:09;100188.52;;;4.11;100.00
19789;BME280;10054;59.332;18.244;2023-04-30T02:22:37;100186.88;;;4.08;100.00
19789;BME280;10054;59.332;18.244;2023-04-30T02:25:07;100189.09;;;4.07;100.00
19789;BME280;10054;59.332;18.244;2023-04-30T02:27:37;100200.33;;;4.09;100.00
19789;BME280;10054;59.332;18.244;2023-04-30T02:30:07;100195.95;;;4.10;100.00
19789;BME280;10054;59.332;18.244;2023-04-30T02:32:36;100203.52;;;4.06;100.00
19789;BME280;10054;59.332;18.244;2023-04-30T02:35:05;100201.23;;;4.08;100.00
19789;BME280;10054;59.332;18.244;2023-04-30T02:37:34;100199.80;;;4.11;100.00
19789;BME280;10054;59.332;18.244;2023-04-30T02:40:03;100201.17;;;4.10;100.00
19789;BME280;10054;59.332;18.244;2023-04-30T02:42:34;100204.63;;;4.10;100.00
19789;BME280;10054;59.332;18.244;2023-04-30T02:45:04;100209.78;;;4.12;100.00
19789;BME280;10054;59.332;18.244;2023-04-30T02:47:33;100211.09;;;4.12;100.00
19789;BME280;10054;59.332;18.244;2023-04-30T02:50:02;100214.35;;;4.07;100.00
19789;BME280;10054;59.332;18.244;2023-04-30T02:52:32;100209.52;;;4.08;100.00
19789;BME280;10054;59.332;18.244;2023-04-30T02:55:01;100222.97;;;4.09;100.00
19789;BME280;10054;59.332;18.244;2023-04-30T02:57:30;100215.27;;;4.06;100.00
19789;BME280;10054;59.332;18.244;2023-04-30T03:00:00;100214.94;;;4.03;100.00
19789;BME280;10054;59.332;18.244;2023-04-30T03:02:29;100219.25;;;4.04;100.00
19789;BME280;10054;59.332;18.244;2023-04-30T03:04:57;100224.98;;;4.02;100.00
19789;BME280;10054;59.332;18.244;2023-04-30T03:07:26;100231.13;;;4.01;100.00
19789;BME280;10054;59.332;18.244;2023-04-30T03:09:55;100230.27;;;4.01;100.00
19789;BME280;10054;59.332;18.244;2023-04-30T03:12:24;100230.60;;;4.03;100.00
19789;BME280;10054;59.332;18.244;2023-04-30T03:14:53;100234.31;;;3.98;100.00
19789;BME280;10054;59.332;18.244;2023-04-30T03:17:21;100234.05;;;3.93;100.00
19789;BME280;10054;59.332;18.244;2023-04-30T03:19:51;100239.84;;;3.90;100.00
19789;BME280;10054;59.332;18.244;2023-04-30T03:22:20;100249.89;;;3.89;100.00
19789;BME280;10054;59.332;18.244;2023-04-30T03:24:50;100256.15;;;3.85;100.00
19789;BME280;10054;59.332;18.244;2023-04-30T03:27:19;100261.76;;;3.86;100.00
19789;BME280;10054;59.332;18.244;2023-04-30T03:29:49;100256.88;;;3.88;100.00
19789;BME280;10054;59.332;18.244;2023-04-30T03:32:19;100260.39;;;3.87;100.00
19789;BME280;10054;59.332;18.244;2023-04-30T03:34:47;100262.28;;;3.84;100.00
19789;BME280;10054;59.332;18.244;2023-04-30T03:37:16;100261.88;;;3.83;100.00
19789;BME280;10054;59.332;18.244;2023-04-30T03:39:45;100262.22;;;3.85;100.00
19789;BME280;10054;59.332;18.244;2023-04-30T03:42:14;100263.91;;;3.86;100.00
19789;BME280;10054;59.332;18.244;2023-04-30T03:44:42;100270.44;;;3.86;100.00
19789;BME280;10054;59.332;18.244;2023-04-30T03:47:11;100272.53;;;3.88;100.00
19789;BME280;10054;59.332;18.244;2023-04-30T03:49:41;100274.16;;;3.91;100.00
19789;BME280;10054;59.332;18.244;2023-04-30T03:52:09;100280.69;;;3.91;100.00
19789;BME280;10054;59.332;18.244;2023-04-30T03:54:39;100284.20;;;3.90;100.00
19789;BME280;10054;59.332;18.244;2023-04-30T03:57:08;100296.09;;;3.97;100.00
19789;BME280;10054;59.332;18.244;2023-04-30T03:59:37;100296.95;;;3.98;100.00
19789;BME280;10054;59.332;18.244;2023-04-30T04:02:05;100296.12;;;4.07;100.00
19789;BME280;10054;59.332;18.244;2023-04-30T04:04:34;100296.86;;;4.21;100.00
19789;BME280;10054;59.332;18.244;2023-04-30T04:07:04;100300.66;;;4.34;99.80
19789;BME280;10054;59.332;18.244;2023-04-30T04:09:34;100300.27;;;4.43;100.00
19789;BME280;10054;59.332;18.244;2023-04-30T04:12:04;100301.55;;;4.63;100.00
19789;BME280;10054;59.332;18.244;2023-04-30T04:14:33;100305.77;;;4.86;98.66
19789;BME280;10054;59.332;18.244;2023-04-30T04:17:02;100302.48;;;5.02;97.36
19789;BME280;10054;59.332;18.244;2023-04-30T04:19:33;100310.11;;;5.25;98.19
19789;BME280;10054;59.332;18.244;2023-04-30T04:22:02;100311.63;;;5.58;96.30
19789;BME280;10054;59.332;18.244;2023-04-30T04:24:31;100317.88;;;5.64;91.30
19789;BME280;10054;59.332;18.244;2023-04-30T04:27:00;100304.80;;;5.64;91.49
19789;BME280;10054;59.332;18.244;2023-04-30T04:29:32;100316.97;;;5.65;91.63
19789;BME280;10054;59.332;18.244;2023-04-30T04:32:01;100312.99;;;5.75;93.95
19789;BME280;10054;59.332;18.244;2023-04-30T04:34:32;100319.70;;;5.81;89.50
19789;BME280;10054;59.332;18.244;2023-04-30T04:37:01;100317.20;;;5.69;89.68
19789;BME280;10054;59.332;18.244;2023-04-30T04:39:30;100325.09;;;5.59;90.01
19789;BME280;10054;59.332;18.244;2023-04-30T04:41:59;100334.83;;;5.47;89.36
19789;BME280;10054;59.332;18.244;2023-04-30T04:44:34;100334.74;;;5.29;89.18
19789;BME280;10054;59.332;18.244;2023-04-30T04:46:59;100338.22;;;5.11;88.13
19789;BME280;10054;59.332;18.244;2023-04-30T04:49:30;100340.78;;;4.92;91.22
19789;BME280;10054;59.332;18.244;2023-04-30T04:52:04;100334.85;;;4.79;90.65
19789;BME280;10054;59.332;18.244;2023-04-30T04:54:33;100344.26;;;4.62;90.63
19789;BME280;10054;59.332;18.244;2023-04-30T04:57:02;100343.27;;;4.55;92.97
19789;BME280;10054;59.332;18.244;2023-04-30T04:59:31;100349.03;;;4.63;93.11
19789;BME280;10054;59.332;18.244;2023-04-30T05:02:00;100342.76;;;4.67;92.14
19789;BME280;10054;59.332;18.244;2023-04-30T05:04:29;100351.64;;;4.63;92.13
19789;BME280;10054;59.332;18.244;2023-04-30T05:06:58;100355.82;;;4.67;92.50
19789;BME280;10054;59.332;18.244;2023-04-30T05:09:27;100348.96;;;4.75;92.99
19789;BME280;10054;59.332;18.244;2023-04-30T05:11:56;100353.41;;;4.73;90.34
19789;BME280;10054;59.332;18.244;2023-04-30T05:14:25;100351.58;;;4.65;91.50
19789;BME280;10054;59.332;18.244;2023-04-30T05:16:53;100351.58;;;4.65;91.88
19789;BME280;10054;59.332;18.244;2023-04-30T05:19:22;100361.05;;;4.67;92.28
19789;BME280;10054;59.332;18.244;2023-04-30T05:21:52;100357.84;;;4.60;91.34
19789;BME280;10054;59.332;18.244;2023-04-30T05:24:21;100355.17;;;4.62;93.14
19789;BME280;10054;59.332;18.244;2023-04-30T05:26:50;100359.80;;;4.66;90.65
19789;BME280;10054;59.332;18.244;2023-04-30T05:29:18;100368.42;;;4.68;92.34
19789;BME280;10054;59.332;18.244;2023-04-30T05:31:47;100366.47;;;4.73;92.78
19789;BME280;10054;59.332;18.244;2023-04-30T05:34:16;100373.46;;;4.82;92.43
19789;BME280;10054;59.332;18.244;2023-04-30T05:36:45;100377.52;;;4.89;91.96
19789;BME280;10054;59.332;18.244;2023-04-30T05:39:14;100381.83;;;4.90;91.46
19789;BME280;10054;59.332;18.244;2023-04-30T05:41:42;100386.79;;;4.97;92.20
19789;BME280;10054;59.332;18.244;2023-04-30T05:44:11;100387.51;;;5.00;91.04
19789;BME280;10054;59.332;18.244;2023-04-30T05:46:40;100393.58;;;5.01;90.53
19789;BME280;10054;59.332;18.244;2023-04-30T05:49:08;100397.64;;;4.98;91.69
19789;BME280;10054;59.332;18.244;2023-04-30T05:51:38;100397.83;;;5.03;91.86
19789;BME280;10054;59.332;18.244;2023-04-30T05:54:06;100399.27;;;5.00;88.83
19789;BME280;10054;59.332;18.244;2023-04-30T05:56:35;100407.97;;;4.90;90.65
19789;BME280;10054;59.332;18.244;2023-04-30T05:59:04;100413.91;;;4.94;91.61
19789;BME280;10054;59.332;18.244;2023-04-30T06:01:33;100417.83;;;4.94;90.97
19789;BME280;10054;59.332;18.244;2023-04-30T06:04:03;100414.04;;;4.91;91.62
19789;BME280;10054;59.332;18.244;2023-04-30T06:06:32;100425.41;;;4.90;91.17
19789;BME280;10054;59.332;18.244;2023-04-30T06:09:00;100421.75;;;4.94;91.32
19789;BME280;10054;59.332;18.244;2023-04-30T06:11:30;100421.55;;;4.88;90.50
19789;BME280;10054;59.332;18.244;2023-04-30T06:13:59;100416.58;;;4.82;91.09
19789;BME280;10054;59.332;18.244;2023-04-30T06:16:28;100421.75;;;4.84;91.09
19789;BME280;10054;59.332;18.244;2023-04-30T06:18:57;100427.03;;;4.82;91.50
19789;BME280;10054;59.332;18.244;2023-04-30T06:21:26;100427.37;;;4.85;92.20
19789;BME280;10054;59.332;18.244;2023-04-30T06:23:55;100428.61;;;4.86;90.77
19789;BME280;10054;59.332;18.244;2023-04-30T06:26:24;100429.78;;;4.89;90.63
19789;BME280;10054;59.332;18.244;2023-04-30T06:28:53;100430.84;;;4.95;91.75
19789;BME280;10054;59.332;18.244;2023-04-30T06:31:22;100431.81;;;5.03;91.33
19789;BME280;10054;59.332;18.244;2023-04-30T06:33:51;100432.34;;;5.11;91.16
19789;BME280;10054;59.332;18.244;2023-04-30T06:36:20;100443.55;;;5.23;91.59
19789;BME280;10054;59.332;18.244;2023-04-30T06:38:49;100445.17;;;5.36;90.72
19789;BME280;10054;59.332;18.244;2023-04-30T06:41:18;100453.99;;;5.44;90.19
19789;BME280;10054;59.332;18.244;2023-04-30T06:43:47;100450.91;;;5.54;90.31
19789;BME280;10054;59.332;18.244;2023-04-30T06:46:15;100460.76;;;5.68;90.26
19789;BME280;10054;59.332;18.244;2023-04-30T06:48:44;100461.33;;;5.75;88.64
19789;BME280;10054;59.332;18.244;2023-04-30T06:51:13;100458.37;;;5.82;87.83
19789;BME280;10054;59.332;18.244;2023-04-30T06:53:42;100464.45;;;5.93;88.72
19789;BME280;10054;59.332;18.244;2023-04-30T06:56:11;100465.98;;;5.97;84.91
19789;BME280;10054;59.332;18.244;2023-04-30T06:58:39;100466.30;;;6.00;87.10
19789;BME280;10054;59.332;18.244;2023-04-30T07:01:08;100463.52;;;6.40;88.39
19789;BME280;10054;59.332;18.244;2023-04-30T07:03:37;100464.11;;;6.64;81.36
19789;BME280;10054;59.332;18.244;2023-04-30T07:06:06;100471.50;;;6.82;85.34
19789;BME280;10054;59.332;18.244;2023-04-30T07:08:35;100466.27;;;6.99;81.25
19789;BME280;10054;59.332;18.244;2023-04-30T07:11:05;100468.74;;;7.11;83.12
19789;BME280;10054;59.332;18.244;2023-04-30T07:13:34;100477.30;;;7.14;82.75
19789;BME280;10054;59.332;18.244;2023-04-30T07:16:04;100475.53;;;7.15;82.91
19789;BME280;10054;59.332;18.244;2023-04-30T07:18:32;100470.75;;;7.06;80.45
19789;BME280;10054;59.332;18.244;2023-04-30T07:21:02;100477.16;;;7.09;82.73
19789;BME280;10054;59.332;18.244;2023-04-30T07:23:31;100482.78;;;7.27;82.67
19789;BME280;10054;59.332;18.244;2023-04-30T07:25:59;100491.42;;;7.29;80.60
19789;BME280;10054;59.332;18.244;2023-04-30T07:28:28;100489.58;;;7.14;79.94
19789;BME280;10054;59.332;18.244;2023-04-30T07:30:56;100487.80;;;6.97;80.77
19789;BME280;10054;59.332;18.244;2023-04-30T07:33:25;100488.16;;;6.81;80.29
19789;BME280;10054;59.332;18.244;2023-04-30T07:35:54;100499.73;;;6.68;82.15
19789;BME280;10054;59.332;18.244;2023-04-30T07:38:25;100500.71;;;6.57;82.98
19789;BME280;10054;59.332;18.244;2023-04-30T07:40:54;100509.61;;;6.44;82.74
19789;BME280;10054;59.332;18.244;2023-04-30T07:43:23;100511.89;;;6.33;84.15
19789;BME280;10054;59.332;18.244;2023-04-30T07:45:52;100508.81;;;6.34;85.44
19789;BME280;10054;59.332;18.244;2023-04-30T07:48:21;100515.36;;;6.34;84.62
19789;BME280;10054;59.332;18.244;2023-04-30T07:50:50;100523.22;;;6.34;84.70
19789;BME280;10054;59.332;18.244;2023-04-30T07:53:19;100528.06;;;6.33;85.84
19789;BME280;10054;59.332;18.244;2023-04-30T07:55:48;100528.78;;;6.36;85.84
19789;BME280;10054;59.332;18.244;2023-04-30T07:58:16;100538.02;;;6.35;84.61
19789;BME280;10054;59.332;18.244;2023-04-30T08:00:45;100542.66;;;6.38;86.72
19789;BME280;10054;59.332;18.244;2023-04-30T08:03:14;100544.78;;;6.49;86.21
19789;BME280;10054;59.332;18.244;2023-04-30T08:05:43;100550.75;;;6.61;85.37
19789;BME280;10054;59.332;18.244;2023-04-30T08:08:12;100546.81;;;6.70;85.48
19789;BME280;10054;59.332;18.244;2023-04-30T08:10:41;100549.63;;;6.84;85.61
19789;BME280;10054;59.332;18.244;2023-04-30T08:13:10;100548.65;;;6.95;83.61
19789;BME280;10054;59.332;18.244;2023-04-30T08:15:39;100556.37;;;6.98;82.99
19789;BME280;10054;59.332;18.244;2023-04-30T08:18:08;100554.06;;;7.01;83.02
19789;BME280;10054;59.332;18.244;2023-04-30T08:20:37;100550.75;;;7.06;83.00
19789;BME280;10054;59.332;18.244;2023-04-30T08:23:06;100563.72;;;7.09;82.94
19789;BME280;10054;59.332;18.244;2023-04-30T08:25:35;100563.88;;;7.14;83.42
19789;BME280;10054;59.332;18.244;2023-04-30T08:28:05;100572.83;;;7.19;82.55
19789;BME280;10054;59.332;18.244;2023-04-30T08:30:34;100577.55;;;7.21;82.30
19789;BME280;10054;59.332;18.244;2023-04-30T08:33:03;100578.55;;;7.27;84.09
19789;BME280;10054;59.332;18.244;2023-04-30T08:35:31;100587.97;;;7.31;80.86
19789;BME280;10054;59.332;18.244;2023-04-30T08:38:00;100589.67;;;7.32;81.15
19789;BME280;10054;59.332;18.244;2023-04-30T08:40:30;100589.83;;;7.38;82.17
19789;BME280;10054;59.332;18.244;2023-04-30T08:43:08;100601.41;;;7.42;81.07
19789;BME280;10054;59.332;18.244;2023-04-30T08:45:38;100600.02;;;7.35;80.49
19789;BME280;10054;59.332;18.244;2023-04-30T08:48:10;100604.64;;;7.30;80.99
19789;BME280;10054;59.332;18.244;2023-04-30T08:50:42;100615.75;;;7.27;80.04
19789;BME280;10054;59.332;18.244;2023-04-30T08:53:12;100617.51;;;7.17;80.10
19789;BME280;10054;59.332;18.244;2023-04-30T08:55:42;100619.43;;;7.14;80.26
19789;BME280;10054;59.332;18.244;2023-04-30T08:58:11;100627.69;;;7.15;79.87
19789;BME280;10054;59.332;18.244;2023-04-30T09:00:40;100628.53;;;7.15;80.04
19789;BME280;10054;59.332;18.244;2023-04-30T09:03:09;100625.95;;;7.33;81.53
19789;BME280;10054;59.332;18.244;2023-04-30T09:05:38;100621.00;;;7.61;80.34
19789;BME280;10054;59.332;18.244;2023-04-30T09:08:07;100618.20;;;7.99;79.58
19789;BME280;10054;59.332;18.244;2023-04-30T09:10:36;100623.13;;;8.29;77.98
19789;BME280;10054;59.332;18.244;2023-04-30T09:13:07;100627.88;;;8.55;75.40
19789;BME280;10054;59.332;18.244;2023-04-30T09:15:37;100636.39;;;8.76;73.93
19789;BME280;10054;59.332;18.244;2023-04-30T09:18:10;100630.41;;;8.81;72.40
19789;BME280;10054;59.332;18.244;2023-04-30T09:20:59;100633.56;;;8.95;72.80
19789;BME280;10054;59.332;18.244;2023-04-30T09:23:13;100633.48;;;9.12;71.14
19789;BME280;10054;59.332;18.244;2023-04-30T09:25:43;100640.85;;;9.21;70.09
19789;BME280;10054;59.332;18.244;2023-04-30T09:28:12;100651.09;;;9.19;69.32
19789;BME280;10054;59.332;18.244;2023-04-30T09:30:42;100646.98;;;9.06;67.56
19789;BME280;10054;59.332;18.244;2023-04-30T09:33:10;100645.45;;;9.02;69.85
19789;BME280;10054;59.332;18.244;2023-04-30T09:35:40;100646.94;;;8.99;67.68
19789;BME280;10054;59.332;18.244;2023-04-30T09:38:29;100647.11;;;8.96;69.78
19789;BME280;10054;59.332;18.244;2023-04-30T09:40:59;100648.84;;;9.04;70.77
19789;BME280;10054;59.332;18.244;2023-04-30T09:43:29;100665.48;;;9.20;70.13
19789;BME280;10054;59.332;18.244;2023-04-30T09:45:58;100663.02;;;9.17;66.96
19789;BME280;10054;59.332;18.244;2023-04-30T09:48:27;100665.56;;;9.19;68.15
19789;BME280;10054;59.332;18.244;2023-04-30T09:50:57;100661.32;;;9.16;66.27
19789;BME280;10054;59.332;18.244;2023-04-30T09:53:26;100667.77;;;9.27;67.46
19789;BME280;10054;59.332;18.244;2023-04-30T09:55:56;100665.44;;;9.52;67.92
19789;BME280;10054;59.332;18.244;2023-04-30T09:58:27;100662.59;;;9.78;65.31
19789;BME280;10054;59.332;18.244;2023-04-30T10:00:57;100664.23;;;9.95;64.43
19789;BME280;10054;59.332;18.244;2023-04-30T10:03:27;100668.00;;;9.98;63.65
19789;BME280;10054;59.332;18.244;2023-04-30T10:05:57;100668.52;;;10.18;64.10
19789;BME280;10054;59.332;18.244;2023-04-30T10:08:28;100681.66;;;10.34;62.81
19789;BME280;10054;59.332;18.244;2023-04-30T10:11:05;100683.61;;;10.45;64.02
19789;BME280;10054;59.332;18.244;2023-04-30T10:13:44;100679.88;;;10.35;65.87
19789;BME280;10054;59.332;18.244;2023-04-30T10:16:18;100672.80;;;10.28;66.49
19789;BME280;10054;59.332;18.244;2023-04-30T10:18:45;100678.45;;;10.29;66.65
19789;BME280;10054;59.332;18.244;2023-04-30T10:21:17;100676.19;;;10.30;65.87
19789;BME280;10054;59.332;18.244;2023-04-30T10:23:48;100675.98;;;10.40;63.65
19789;BME280;10054;59.332;18.244;2023-04-30T10:26:18;100672.69;;;10.44;62.42
19789;BME280;10054;59.332;18.244;2023-04-30T10:28:48;100673.91;;;10.45;61.50
19789;BME280;10054;59.332;18.244;2023-04-30T10:31:17;100671.56;;;10.48;61.34
19789;BME280;10054;59.332;18.244;2023-04-30T10:36:59;100673.06;;;10.66;58.54
19789;BME280;10054;59.332;18.244;2023-04-30T10:39:29;100673.91;;;10.81;58.71
19789;BME280;10054;59.332;18.244;2023-04-30T10:42:04;100694.64;;;10.73;56.59
19789;BME280;10054;59.332;18.244;2023-04-30T10:44:37;100694.64;;;10.73;56.59
19789;BME280;10054;59.332;18.244;2023-04-30T10:47:07;100681.08;;;10.58;57.30
19789;BME280;10054;59.332;18.244;2023-04-30T10:49:36;100687.77;;;10.49;57.26
19789;BME280;10054;59.332;18.244;2023-04-30T10:52:06;100677.52;;;10.37;55.49
19789;BME280;10054;59.332;18.244;2023-04-30T10:54:35;100688.33;;;10.26;56.34
19789;BME280;10054;59.332;18.244;2023-04-30T10:57:12;100689.45;;;10.22;55.26
19789;BME280;10054;59.332;18.244;2023-04-30T10:59:52;100688.80;;;10.25;56.46
19789;BME280;10054;59.332;18.244;2023-04-30T11:02:21;100688.42;;;10.45;56.57
19789;BME280;10054;59.332;18.244;2023-04-30T11:05:10;100690.97;;;10.61;56.24
19789;BME280;10054;59.332;18.244;2023-04-30T11:07:50;100685.49;;;10.85;56.24
19789;BME280;10054;59.332;18.244;2023-04-30T11:10:25;100687.53;;;11.09;54.00
19789;BME280;10054;59.332;18.244;2023-04-30T11:12:55;100706.91;;;11.15;53.86
19789;BME280;10054;59.332;18.244;2023-04-30T11:15:32;100697.91;;;11.05;54.98
19789;BME280;10054;59.332;18.244;2023-04-30T11:17:58;100697.08;;;10.97;54.83
19789;BME280;10054;59.332;18.244;2023-04-30T11:20:27;100683.69;;;10.93;53.85
19789;BME280;10054;59.332;18.244;2023-04-30T11:23:15;100697.52;;;11.11;54.39
19789;BME280;10054;59.332;18.244;2023-04-30T11:25:46;100699.49;;;11.41;53.78
19789;BME280;10054;59.332;18.244;2023-04-30T11:28:25;100712.86;;;11.52;51.64
19789;BME280;10054;59.332;18.244;2023-04-30T11:31:00;100717.31;;;11.45;49.64
19789;BME280;10054;59.332;18.244;2023-04-30T11:33:28;100719.91;;;11.25;50.97
19789;BME280;10054;59.332;18.244;2023-04-30T11:35:58;100719.91;;;11.25;50.97
19789;BME280;10054;59.332;18.244;2023-04-30T11:38:35;100719.16;;;11.23;48.62
19789;BME280;10054;59.332;18.244;2023-04-30T11:41:04;100724.82;;;11.58;50.32
19789;BME280;10054;59.332;18.244;2023-04-30T11:43:34;100724.82;;;11.58;50.32
19789;BME280;10054;59.332;18.244;2023-04-30T11:46:11;100732.45;;;11.63;49.33
19789;BME280;10054;59.332;18.244;2023-04-30T11:48:42;100734.02;;;11.72;49.31
19789;BME280;10054;59.332;18.244;2023-04-30T11:51:18;100733.39;;;11.89;49.25
19789;BME280;10054;59.332;18.244;2023-04-30T11:53:49;100744.95;;;12.00;47.88
19789;BME280;10054;59.332;18.244;2023-04-30T11:56:22;100739.22;;;11.94;44.52
19789;BME280;10054;59.332;18.244;2023-04-30T11:58:52;100743.90;;;12.03;47.29
19789;BME280;10054;59.332;18.244;2023-04-30T12:01:26;100740.95;;;12.07;47.45
19789;BME280;10054;59.332;18.244;2023-04-30T12:03:55;100743.52;;;12.02;47.37
19789;BME280;10054;59.332;18.244;2023-04-30T12:06:26;100756.64;;;12.03;48.28
19789;BME280;10054;59.332;18.244;2023-04-30T12:08:57;100754.27;;;12.06;48.02
19789;BME280;10054;59.332;18.244;2023-04-30T12:11:30;100747.45;;;12.09;47.40
19789;BME280;10054;59.332;18.244;2023-04-30T12:14:09;100752.55;;;12.12;48.56
19789;BME280;10054;59.332;18.244;2023-04-30T12:16:43;100750.75;;;12.12;48.43
19789;BME280;10054;59.332;18.244;2023-04-30T12:19:14;100745.93;;;12.12;47.52
19789;BME280;10054;59.332;18.244;2023-04-30T12:21:44;100744.61;;;12.12;47.08
19789;BME280;10054;59.332;18.244;2023-04-30T12:24:15;100739.42;;;12.10;45.75
19789;BME280;10054;59.332;18.244;2023-04-30T12:26:45;100744.50;;;12.13;45.74
19789;BME280;10054;59.332;18.244;2023-04-30T12:29:16;100759.36;;;12.09;44.05
19789;BME280;10054;59.332;18.244;2023-04-30T12:31:47;100758.47;;;12.15;44.81
19789;BME280;10054;59.332;18.244;2023-04-30T12:34:17;100751.08;;;12.21;44.59
19789;BME280;10054;59.332;18.244;2023-04-30T12:36:46;100751.77;;;12.17;43.20
19789;BME280;10054;59.332;18.244;2023-04-30T12:39:15;100751.02;;;12.15;43.33
19789;BME280;10054;59.332;18.244;2023-04-30T12:41:45;100745.69;;;12.22;43.21
19789;BME280;10054;59.332;18.244;2023-04-30T12:44:19;100749.24;;;12.28;42.53
19789;BME280;10054;59.332;18.244;2023-04-30T12:46:50;100753.38;;;12.32;42.80
19789;BME280;10054;59.332;18.244;2023-04-30T12:49:33;100753.13;;;12.42;43.25
19789;BME280;10054;59.332;18.244;2023-04-30T12:51:59;100749.64;;;12.55;43.37
19789;BME280;10054;59.332;18.244;2023-04-30T12:54:29;100752.84;;;12.65;43.10
19789;BME280;10054;59.332;18.244;2023-04-30T12:57:06;100754.89;;;12.62;42.42
19789;BME280;10054;59.332;18.244;2023-04-30T12:59:55;100756.58;;;12.50;42.06
19789;BME280;10054;59.332;18.244;2023-04-30T13:02:12;100758.95;;;12.47;41.76
19789;BME280;10054;59.332;18.244;2023-04-30T13:04:42;100759.27;;;12.43;41.21
19789;BME280;10054;59.332;18.244;2023-04-30T13:07:11;100765.87;;;12.43;41.67
19789;BME280;10054;59.332;18.244;2023-04-30T13:09:40;100755.30;;;12.43;40.74
19789;BME280;10054;59.332;18.244;2023-04-30T13:12:09;100762.66;;;12.45;40.21
19789;BME280;10054;59.332;18.244;2023-04-30T13:14:37;100756.73;;;12.54;40.43
19789;BME280;10054;59.332;18.244;2023-04-30T13:17:06;100753.91;;;12.63;40.02